Time;durP1;ratioP1;P1;durP2;ratioP2;P2;SDS_P1;SDS_P2;PMS_P1;PMS_P2;Temp;Humidity;BMP_temperature;BMP_pressure;BME280_temperature;BME280_humidity;BME280_pressure;Samples;Min_cycle;Max_cycle;Signal;HPM_P1;HPM_P2
2022/03/26 00:00:12;;;;;;;17.00;9.23;;;;;;;9.00;44.87;102826.56;4965459;28;96919;-83
2022/03/26 00:02:37;;;;;;;19.70;9.30;;;;;;;8.92;44.99;102816.97;4965619;28;97611;-82
2022/03/26 00:05:04;;;;;;;18.30;10.83;;;;;;;8.89;45.16;102826.81;4967036;28;97438;-82
2022/03/26 00:07:29;;;;;;;20.07;9.50;;;;;;;8.89;45.31;102828.78;4965442;28;97036;-82
2022/03/26 00:09:54;;;;;;;17.87;9.83;;;;;;;8.83;45.40;102828.53;4964553;28;96654;-83
2022/03/26 00:12:20;;;;;;;18.27;10.30;;;;;;;8.84;45.36;102815.59;4977596;28;98544;-82
2022/03/26 00:14:45;;;;;;;22.97;10.70;;;;;;;8.81;45.42;102808.97;4971883;28;97154;-82
2022/03/26 00:17:11;;;;;;;16.43;9.43;;;;;;;8.78;45.27;102815.31;4966826;28;96881;-83
2022/03/26 00:19:36;;;;;;;20.97;10.00;;;;;;;8.77;45.63;102821.22;4965374;28;96973;-83
2022/03/26 00:22:02;;;;;;;17.07;9.30;;;;;;;8.76;45.36;102811.44;4967425;28;97839;-82
2022/03/26 00:24:28;;;;;;;14.13;8.33;;;;;;;8.69;45.55;102819.84;4968399;28;98107;-83
2022/03/26 00:26:53;;;;;;;19.90;10.13;;;;;;;8.67;45.50;102812.03;4966169;28;97170;-82
2022/03/26 00:29:19;;;;;;;17.97;9.60;;;;;;;8.63;45.42;102827.81;4966281;28;96743;-82
2022/03/26 00:31:45;;;;;;;20.13;10.77;;;;;;;8.57;45.55;102817.75;4967741;28;96886;-82
2022/03/26 00:34:11;;;;;;;18.63;10.93;;;;;;;8.57;45.55;102815.78;4984521;28;99426;-82
2022/03/26 00:36:36;;;;;;;18.47;9.00;;;;;;;8.55;45.71;102818.19;4964618;28;97734;-82
2022/03/26 00:39:03;;;;;;;18.83;9.40;;;;;;;8.53;45.70;102814.31;4964737;28;97502;-83
2022/03/26 00:41:29;;;;;;;17.83;9.07;;;;;;;8.44;45.63;102819.59;4965551;28;96876;-82
2022/03/26 00:43:55;;;;;;;15.07;8.73;;;;;;;8.44;45.70;102814.91;4965357;28;98267;-82
2022/03/26 00:46:21;;;;;;;20.03;8.40;;;;;;;8.44;46.00;102806.69;4961244;28;98388;-83
2022/03/26 00:48:47;;;;;;;16.60;9.50;;;;;;;8.40;46.05;102813.44;4964552;28;96877;-83
2022/03/26 00:51:15;;;;;;;13.63;7.97;;;;;;;8.36;46.16;102807.25;4969421;28;97566;-83
2022/03/26 00:53:42;;;;;;;18.07;9.23;;;;;;;8.30;45.90;102812.44;4969279;28;98683;-82
2022/03/26 00:56:07;;;;;;;15.40;9.00;;;;;;;8.27;45.95;102807.81;4963917;28;96809;-83
2022/03/26 00:58:33;;;;;;;14.43;8.13;;;;;;;8.23;45.95;102818.81;4979105;28;97383;-82
2022/03/26 01:00:58;;;;;;;15.97;8.73;;;;;;;8.17;46.10;102812.28;4965509;28;99032;-82
2022/03/26 01:03:23;;;;;;;14.17;8.23;;;;;;;8.11;46.11;102818.69;4963458;28;97425;-83
2022/03/26 01:05:49;;;;;;;15.43;8.20;;;;;;;8.08;46.41;102806.59;4963142;28;97193;-83
2022/03/26 01:08:14;;;;;;;13.10;7.90;;;;;;;8.07;46.46;102798.81;4967170;28;96849;-83
2022/03/26 01:10:41;;;;;;;12.10;7.93;;;;;;;8.06;46.13;102816.47;4963455;28;97497;-83
2022/03/26 01:13:07;;;;;;;14.63;8.30;;;;;;;8.04;46.46;102805.13;4964342;28;99570;-83
2022/03/26 01:15:32;;;;;;;18.13;8.30;;;;;;;7.97;46.57;102821.72;4965279;28;97119;-82
2022/03/26 01:17:58;;;;;;;13.00;7.37;;;;;;;7.95;46.40;102827.63;4964652;28;97228;-82
2022/03/26 01:20:23;;;;;;;15.90;7.50;;;;;;;7.92;46.60;102819.47;4959971;28;97001;-83
2022/03/26 01:22:48;;;;;;;18.00;8.27;;;;;;;7.90;46.51;102797.97;4966278;28;97384;-83
2022/03/26 01:25:14;;;;;;;14.47;8.20;;;;;;;7.89;46.59;102814.81;4962143;28;101315;-82
2022/03/26 01:27:40;;;;;;;13.90;7.00;;;;;;;7.88;46.83;102805.06;4959818;28;97396;-83
2022/03/26 01:30:06;;;;;;;21.20;8.27;;;;;;;7.88;46.54;102799.59;4965781;28;96945;-83
2022/03/26 01:32:32;;;;;;;15.07;8.50;;;;;;;7.83;46.81;102800.84;4959986;28;97062;-83
2022/03/26 01:34:58;;;;;;;14.73;8.67;;;;;;;7.81;46.77;102805.19;4965189;28;96972;-82
2022/03/26 01:37:24;;;;;;;13.60;8.20;;;;;;;7.81;46.69;102805.19;4963487;28;96906;-82
2022/03/26 01:39:50;;;;;;;18.20;7.93;;;;;;;7.77;46.62;102829.16;4965547;28;97388;-83
2022/03/26 01:42:16;;;;;;;17.00;8.77;;;;;;;7.76;46.80;102811.16;4963668;28;97113;-83
2022/03/26 01:44:42;;;;;;;15.47;9.03;;;;;;;7.73;46.74;102806.53;4966857;28;96739;-82
2022/03/26 01:47:07;;;;;;;19.13;9.90;;;;;;;7.72;46.91;102807.72;4962660;28;96842;-83
2022/03/26 01:49:32;;;;;;;24.47;10.33;;;;;;;7.72;47.15;102799.50;4964872;28;96718;-82
2022/03/26 01:52:00;;;;;;;16.53;8.80;;;;;;;7.72;46.76;102791.28;4963405;28;97678;-83
2022/03/26 01:54:26;;;;;;;23.03;10.37;;;;;;;7.71;46.96;102800.69;4966155;28;96978;-83
2022/03/26 01:56:53;;;;;;;21.60;11.07;;;;;;;7.69;46.73;102801.09;4964248;28;97421;-82
2022/03/26 01:59:19;;;;;;;20.30;11.27;;;;;;;7.66;47.18;102810.19;4961744;28;98709;-82
2022/03/26 02:01:45;;;;;;;21.47;10.23;;;;;;;7.67;47.20;102799.97;4963259;28;97160;-82
2022/03/26 02:04:11;;;;;;;18.00;10.17;;;;;;;7.61;47.04;102794.22;4961556;28;96969;-82
2022/03/26 02:06:38;;;;;;;20.70;10.97;;;;;;;7.63;47.42;102793.78;4960260;28;96897;-82
2022/03/26 02:09:06;;;;;;;20.43;11.07;;;;;;;7.60;46.87;102792.66;4954926;28;102128;-83
2022/03/26 02:11:37;;;;;;;20.23;10.97;;;;;;;7.59;47.65;102793.84;4962692;28;96929;-83
2022/03/26 02:14:03;;;;;;;21.57;11.50;;;;;;;7.53;47.26;102801.78;4964550;28;97511;-82
2022/03/26 02:16:30;;;;;;;26.30;11.63;;;;;;;7.54;47.09;102783.38;4966195;28;97222;-82
2022/03/26 02:18:56;;;;;;;23.87;10.40;;;;;;;7.52;47.31;102793.97;4963997;28;100186;-82
2022/03/26 02:21:22;;;;;;;18.67;10.50;;;;;;;7.49;47.43;102783.88;4958982;28;96839;-83
2022/03/26 02:23:49;;;;;;;28.27;11.27;;;;;;;7.47;47.47;102791.72;4979365;28;96855;-83
2022/03/26 02:26:16;;;;;;;19.07;10.40;;;;;;;7.44;47.55;102798.03;4961817;28;97091;-83
2022/03/26 02:28:44;;;;;;;22.37;12.13;;;;;;;7.43;47.43;102789.06;4963942;28;98522;-83
2022/03/26 02:31:11;;;;;;;19.53;10.27;;;;;;;7.42;47.65;102786.75;4955806;28;99910;-83
2022/03/26 02:33:37;;;;;;;21.83;10.37;;;;;;;7.39;47.58;102796.56;4962481;28;96891;-82
2022/03/26 02:36:03;;;;;;;26.50;8.90;;;;;;;7.37;47.75;102779.00;4961643;28;96894;-84
2022/03/26 02:38:29;;;;;;;16.60;9.50;;;;;;;7.35;47.72;102764.94;4959235;28;98025;-83
2022/03/26 02:40:55;;;;;;;24.70;10.63;;;;;;;7.35;47.69;102770.44;4957141;28;97486;-83
2022/03/26 02:43:20;;;;;;;17.77;9.80;;;;;;;7.31;47.75;102767.75;4963090;28;98215;-83
2022/03/26 02:45:46;;;;;;;16.47;9.30;;;;;;;7.29;47.75;102759.19;4965371;28;96746;-83
2022/03/26 02:48:13;;;;;;;14.90;8.47;;;;;;;7.28;47.93;102756.84;4967511;28;96889;-82
2022/03/26 02:50:42;;;;;;;14.10;8.17;;;;;;;7.25;47.84;102760.44;4962388;28;104138;-83
2022/03/26 02:53:08;;;;;;;16.10;8.77;;;;;;;7.21;47.86;102740.53;4962550;28;97176;-83
2022/03/26 02:55:34;;;;;;;17.20;9.50;;;;;;;7.22;47.79;102759.31;4960744;28;96862;-82
2022/03/26 02:58:00;;;;;;;17.87;8.00;;;;;;;7.21;47.94;102749.53;4958879;28;98844;-83
2022/03/26 03:00:25;;;;;;;18.80;8.87;;;;;;;7.19;47.90;102740.97;4961379;28;96624;-83
2022/03/26 03:02:51;;;;;;;19.20;11.07;;;;;;;7.18;48.01;102746.88;4966070;28;96693;-82
2022/03/26 03:05:16;;;;;;;20.60;10.60;;;;;;;7.13;48.07;102742.66;4951969;28;96906;-82
2022/03/26 03:07:42;;;;;;;18.60;8.90;;;;;;;7.10;48.03;102746.22;4964952;28;97023;-82
2022/03/26 03:10:07;;;;;;;19.40;9.13;;;;;;;7.10;48.35;102745.47;4968895;28;98791;-83
2022/03/26 03:12:33;;;;;;;17.30;9.00;;;;;;;7.09;48.32;102744.69;4965076;28;98349;-82
2022/03/26 03:14:59;;;;;;;19.17;10.87;;;;;;;7.09;48.05;102743.91;4965953;28;97022;-82
2022/03/26 03:17:24;;;;;;;23.07;10.77;;;;;;;6.98;48.19;102727.66;4965444;28;97924;-82
2022/03/26 03:19:50;;;;;;;31.37;14.13;;;;;;;7.01;48.09;102745.97;4966342;28;99502;-82
2022/03/26 03:22:16;;;;;;;28.57;12.97;;;;;;;6.98;48.04;102749.56;4967599;28;97133;-82
2022/03/26 03:24:42;;;;;;;30.30;13.87;;;;;;;6.97;48.47;102752.72;4969886;28;97348;-82
2022/03/26 03:27:07;;;;;;;42.73;14.83;;;;;;;6.92;48.24;102753.97;4967754;28;97283;-82
2022/03/26 03:29:33;;;;;;;28.13;14.83;;;;;;;6.93;48.38;102750.03;4962419;28;98170;-82
2022/03/26 03:31:58;;;;;;;33.83;15.90;;;;;;;6.91;48.12;102735.19;4967174;28;96850;-81
2022/03/26 03:34:24;;;;;;;26.60;13.83;;;;;;;6.93;48.23;102741.03;4963453;28;96937;-82
2022/03/26 03:36:49;;;;;;;30.37;14.57;;;;;;;6.92;48.41;102742.22;4968162;28;98087;-83
2022/03/26 03:39:15;;;;;;;30.27;15.07;;;;;;;6.91;48.45;102746.94;4960284;28;97431;-83
2022/03/26 03:41:40;;;;;;;27.20;14.67;;;;;;;6.92;48.46;102732.06;4962725;28;96703;-83
2022/03/26 03:44:07;;;;;;;28.43;13.50;;;;;;;6.91;48.26;102784.44;4963478;28;96946;-83
2022/03/26 03:46:33;;;;;;;25.23;13.30;;;;;;;6.88;48.54;102739.53;4962773;28;99225;-82
2022/03/26 03:48:59;;;;;;;29.77;14.40;;;;;;;6.87;48.33;102742.69;4965684;28;102493;-83
2022/03/26 03:51:25;;;;;;;30.07;14.67;;;;;;;6.86;48.66;102765.78;4965058;28;97291;-83
2022/03/26 03:53:50;;;;;;;27.90;15.27;;;;;;;6.83;48.49;102745.50;4962328;28;97494;-82
2022/03/26 03:56:16;;;;;;;33.77;14.43;;;;;;;6.82;48.69;102749.41;4965707;28;97109;-83
2022/03/26 03:58:41;;;;;;;31.17;15.50;;;;;;;6.80;48.79;102749.84;4962565;28;100171;-82
2022/03/26 04:01:07;;;;;;;34.70;15.30;;;;;;;6.82;48.57;102747.47;4965858;28;96648;-82
2022/03/26 04:03:33;;;;;;;35.97;15.10;;;;;;;6.82;48.88;102744.72;4963576;28;97201;-82
2022/03/26 04:05:59;;;;;;;30.10;14.97;;;;;;;6.78;48.60;102765.13;4960110;28;98427;-83
2022/03/26 04:08:25;;;;;;;33.90;14.97;;;;;;;6.73;48.56;102754.63;4962947;28;98574;-82
2022/03/26 04:10:50;;;;;;;32.60;16.20;;;;;;;6.63;48.89;102759.09;4964854;28;96719;-82
2022/03/26 04:13:16;;;;;;;31.70;15.43;;;;;;;6.53;48.96;102759.25;4965976;28;97301;-83
2022/03/26 04:15:41;;;;;;;31.43;16.87;;;;;;;6.52;48.74;102741.28;4962982;28;97671;-83
2022/03/26 04:18:07;;;;;;;34.17;16.57;;;;;;;6.57;49.15;102751.78;4960910;28;97500;-83
2022/03/26 04:20:33;;;;;;;32.17;15.97;;;;;;;6.58;49.29;102775.19;4960946;28;97454;-83
2022/03/26 04:22:59;;;;;;;38.13;18.27;;;;;;;6.53;48.96;102756.50;4961156;28;97099;-82
2022/03/26 04:25:24;;;;;;;34.33;17.40;;;;;;;6.55;49.04;102765.84;4977765;28;98126;-83
2022/03/26 04:27:49;;;;;;;34.70;16.50;;;;;;;6.55;49.06;102776.03;4943631;28;97280;-83
2022/03/26 04:30:15;;;;;;;35.43;17.13;;;;;;;6.50;49.19;102763.56;4958089;28;96968;-82
2022/03/26 04:32:41;;;;;;;36.67;16.70;;;;;;;6.52;48.84;102755.75;4967127;28;96996;-82
2022/03/26 04:35:07;;;;;;;33.90;15.93;;;;;;;6.49;49.09;102763.97;4964438;28;100783;-82
2022/03/26 04:37:34;;;;;;;36.93;17.10;;;;;;;6.46;48.97;102764.81;4963353;28;97353;-82
2022/03/26 04:40:00;;;;;;;37.00;16.23;;;;;;;6.43;49.17;102771.09;4969094;28;97389;-83
2022/03/26 04:42:25;;;;;;;39.33;17.60;;;;;;;6.41;49.44;102763.31;4964398;28;97369;-82
2022/03/26 04:44:51;;;;;;;36.33;17.47;;;;;;;6.40;49.42;102769.19;4960600;28;98062;-82
2022/03/26 04:47:17;;;;;;;43.00;18.00;;;;;;;6.37;49.14;102778.22;4964039;28;98544;-82
2022/03/26 04:49:42;;;;;;;35.23;18.10;;;;;;;6.32;49.66;102763.03;4963156;28;97030;-82
2022/03/26 04:52:08;;;;;;;44.13;18.30;;;;;;;6.32;49.22;102768.50;4964288;28;96882;-82
2022/03/26 04:54:34;;;;;;;48.50;19.80;;;;;;;6.27;49.22;102770.94;4961428;28;98211;-81
2022/03/26 04:56:59;;;;;;;47.17;20.73;;;;;;;6.16;49.54;102770.31;4967051;28;97253;-81
2022/03/26 04:59:25;;;;;;;46.33;21.17;;;;;;;6.10;49.82;102783.63;4963414;28;96775;-82
2022/03/26 05:01:50;;;;;;;39.57;19.60;;;;;;;6.07;49.80;102779.75;4966534;28;96957;-82
2022/03/26 05:04:16;;;;;;;44.40;19.47;;;;;;;6.11;49.78;102792.59;4962397;28;97670;-82
2022/03/26 05:06:41;;;;;;;43.90;18.63;;;;;;;6.07;49.81;102806.31;4962759;28;99174;-82
2022/03/26 05:09:07;;;;;;;55.07;21.67;;;;;;;6.05;49.74;102803.19;4966328;28;97243;-82
2022/03/26 05:11:32;;;;;;;43.47;19.60;;;;;;;6.05;49.75;102803.19;4960027;28;97215;-82
2022/03/26 05:13:58;;;;;;;39.40;18.50;;;;;;;6.07;49.80;102779.75;4960473;28;98836;-82
2022/03/26 05:16:23;;;;;;;46.07;21.00;;;;;;;6.04;49.88;102780.59;4968075;28;99724;-82
2022/03/26 05:18:48;;;;;;;38.20;18.33;;;;;;;6.06;49.76;102791.09;4981465;28;96732;-83
2022/03/26 05:21:14;;;;;;;36.33;17.83;;;;;;;6.04;49.54;102785.28;4980061;28;96668;-82
2022/03/26 05:23:39;;;;;;;34.73;17.60;;;;;;;6.02;49.74;102804.03;4964592;28;99842;-82
2022/03/26 05:26:05;;;;;;;40.20;18.73;;;;;;;6.00;49.84;102779.06;4962477;28;97580;-82
2022/03/26 05:28:31;;;;;;;37.63;18.07;;;;;;;6.03;49.97;102794.63;4961996;28;98728;-83
2022/03/26 05:30:56;;;;;;;38.37;18.77;;;;;;;6.01;49.91;102797.00;4957395;28;96798;-82
2022/03/26 05:33:22;;;;;;;42.87;18.93;;;;;;;6.02;49.64;102793.88;4962818;28;100919;-83
2022/03/26 05:35:48;;;;;;;40.43;18.40;;;;;;;6.00;49.65;102801.72;4961963;28;97368;-82
2022/03/26 05:38:13;;;;;;;48.17;20.73;;;;;;;5.99;49.91;102799.38;4966806;28;96956;-83
2022/03/26 05:40:39;;;;;;;41.60;19.10;;;;;;;5.98;49.77;102797.84;4963777;28;97038;-83
2022/03/26 05:43:04;;;;;;;41.37;19.03;;;;;;;5.98;49.79;102784.19;4963211;28;97965;-82
2022/03/26 05:45:30;;;;;;;40.73;19.37;;;;;;;5.92;50.14;102792.03;4962179;28;97664;-82
2022/03/26 05:47:57;;;;;;;43.70;19.63;;;;;;;6.01;50.18;102792.31;4956652;28;96781;-83
2022/03/26 05:50:22;;;;;;;44.87;19.67;;;;;;;5.99;49.95;102824.75;4962813;28;96996;-83
2022/03/26 05:52:48;;;;;;;43.57;20.17;;;;;;;5.99;50.15;102794.69;4968627;28;98674;-82
2022/03/26 05:55:16;;;;;;;44.30;20.83;;;;;;;6.00;50.25;102809.91;4962979;28;96950;-82
2022/03/26 05:57:41;;;;;;;34.30;18.70;;;;;;;6.02;50.09;102801.31;4963104;28;96879;-83
2022/03/26 06:00:08;;;;;;;42.13;19.77;;;;;;;6.02;50.06;102813.00;4969161;28;97042;-83
2022/03/26 06:02:34;;;;;;;37.80;19.03;;;;;;;6.07;50.26;102811.00;4964444;28;100902;-83
2022/03/26 06:04:59;;;;;;;43.50;19.90;;;;;;;6.12;50.27;102797.66;4964783;28;97056;-83
2022/03/26 06:07:25;;;;;;;43.30;21.50;;;;;;;6.18;50.43;102806.19;4964277;28;97253;-83
2022/03/26 06:09:50;;;;;;;49.07;22.30;;;;;;;6.22;50.29;102812.38;4964442;28;97222;-83
2022/03/26 06:12:16;;;;;;;39.17;19.90;;;;;;;6.26;50.50;102802.19;4966900;28;97078;-82
2022/03/26 06:14:42;;;;;;;55.13;21.07;;;;;;;6.28;50.50;102805.28;4961112;28;102692;-83
2022/03/26 06:17:07;;;;;;;44.30;19.87;;;;;;;6.33;50.24;102818.50;4963957;28;97283;-83
2022/03/26 06:19:32;;;;;;;37.83;18.87;;;;;;;6.36;50.50;102823.13;4963152;28;97271;-83
2022/03/26 06:21:58;;;;;;;41.57;19.30;;;;;;;6.33;50.19;102841.16;4956054;28;97454;-83
2022/03/26 06:24:23;;;;;;;43.83;18.40;;;;;;;6.45;50.32;102807.00;4964280;28;99479;-83
2022/03/26 06:26:49;;;;;;;47.80;20.20;;;;;;;6.47;50.52;102802.69;4962477;28;97690;-84
2022/03/26 06:29:16;;;;;;;44.40;19.20;;;;;;;6.53;50.64;102816.69;4965080;28;96889;-84
2022/03/26 06:31:42;;;;;;;44.07;19.57;;;;;;;6.60;50.55;102805.63;4963565;28;99006;-84
2022/03/26 06:34:08;;;;;;;41.40;20.73;;;;;;;6.64;50.45;102820.78;4960112;28;102927;-84
2022/03/26 06:36:34;;;;;;;42.50;19.60;;;;;;;6.64;50.38;102806.38;4964522;28;96872;-83
2022/03/26 06:39:06;;;;;;;47.13;21.43;;;;;;;6.76;50.71;102805.78;4961211;28;97065;-84
2022/03/26 06:41:31;;;;;;;42.23;20.90;;;;;;;6.84;50.64;102825.63;4972522;28;96975;-83
2022/03/26 06:43:56;;;;;;;49.47;22.27;;;;;;;6.88;50.70;102821.63;4962725;28;100578;-83
2022/03/26 06:46:22;;;;;;;43.60;20.67;;;;;;;6.93;50.77;102831.31;4966946;28;97019;-84
2022/03/26 06:48:47;;;;;;;45.63;21.23;;;;;;;6.96;50.96;102820.34;4968112;28;96836;-83
2022/03/26 06:51:13;;;;;;;39.63;19.30;;;;;;;7.05;50.95;102826.06;4964265;28;97839;-82
2022/03/26 06:53:39;;;;;;;41.67;20.57;;;;;;;7.14;50.81;102828.28;4961752;28;97486;-82
2022/03/26 06:56:07;;;;;;;46.93;20.83;;;;;;;7.25;51.23;102834.38;4967385;28;96744;-83
2022/03/26 06:58:34;;;;;;;41.03;19.87;;;;;;;7.33;50.91;102820.16;4965130;28;96776;-83
2022/03/26 07:01:00;;;;;;;44.30;21.10;;;;;;;7.41;50.86;102824.31;4966909;28;99182;-84
2022/03/26 07:03:25;;;;;;;46.00;22.10;;;;;;;7.55;50.94;102848.72;4983157;28;97185;-84
2022/03/26 07:05:51;;;;;;;44.57;21.97;;;;;;;7.70;51.16;102824.56;4967089;28;96733;-84
2022/03/26 07:08:16;;;;;;;40.57;20.07;;;;;;;7.84;51.10;102820.81;4965503;28;96781;-84
2022/03/26 07:10:45;;;;;;;48.47;21.43;;;;;;;7.99;51.06;102822.84;4967184;28;97884;-83
2022/03/26 07:13:11;;;;;;;45.80;20.10;;;;;;;8.15;50.92;102835.84;4965505;28;97258;-83
2022/03/26 07:15:36;;;;;;;41.33;20.03;;;;;;;8.28;50.85;102839.53;4967280;28;97066;-82
2022/03/26 07:18:02;;;;;;;43.10;21.20;;;;;;;8.34;50.68;102837.84;4962134;28;97060;-83
2022/03/26 07:20:27;;;;;;;45.23;20.87;;;;;;;8.40;50.99;102836.16;4966625;28;98443;-82
2022/03/26 07:22:53;;;;;;;46.93;21.47;;;;;;;8.54;50.81;102840.56;4968622;28;96622;-83
2022/03/26 07:25:18;;;;;;;44.63;21.00;;;;;;;8.64;50.80;102877.97;4965712;28;97050;-83
2022/03/26 07:27:43;;;;;;;48.57;20.57;;;;;;;8.76;50.90;102849.88;4967060;28;97142;-83
2022/03/26 07:30:10;;;;;;;47.40;21.60;;;;;;;8.89;50.93;102846.03;4963832;28;99140;-83
2022/03/26 07:32:35;;;;;;;42.73;22.33;;;;;;;9.02;50.58;102843.41;4980348;28;97017;-83
2022/03/26 07:35:02;;;;;;;49.27;22.10;;;;;;;9.16;51.00;102854.03;4964577;28;96827;-84
2022/03/26 07:37:27;;;;;;;46.10;21.00;;;;;;;9.28;50.72;102836.13;4965463;28;97617;-83
2022/03/26 07:39:52;;;;;;;38.20;19.83;;;;;;;9.39;50.59;102844.88;4966014;28;97641;-83
2022/03/26 07:42:18;;;;;;;42.20;20.57;;;;;;;9.55;50.71;102842.09;4961689;28;98051;-84
2022/03/26 07:44:43;;;;;;;43.70;20.10;;;;;;;9.73;50.62;102836.91;4965316;28;97155;-84
2022/03/26 07:47:09;;;;;;;44.80;20.67;;;;;;;9.87;50.63;102864.03;4963527;28;97100;-83
2022/03/26 07:49:34;;;;;;;39.73;19.17;;;;;;;10.04;50.22;102856.50;4968647;28;97566;-82
2022/03/26 07:52:00;;;;;;;43.40;20.40;;;;;;;10.15;50.21;102857.00;4965053;28;97802;-82
2022/03/26 07:54:26;;;;;;;45.63;21.50;;;;;;;10.29;50.56;102865.63;4966150;28;96844;-84
2022/03/26 07:56:51;;;;;;;46.60;22.60;;;;;;;10.44;50.24;102857.75;4955938;28;97031;-83
2022/03/26 07:59:17;;;;;;;39.77;20.17;;;;;;;10.55;50.24;102850.72;4961568;28;97556;-83
2022/03/26 08:01:42;;;;;;;39.63;20.13;;;;;;;10.59;50.30;102836.88;4963835;28;97197;-84
2022/03/26 08:04:07;;;;;;;42.67;20.70;;;;;;;10.80;50.00;102857.47;4963744;28;96656;-83
2022/03/26 08:06:33;;;;;;;37.20;19.57;;;;;;;10.94;50.07;102846.00;4965292;28;96976;-83
2022/03/26 08:08:58;;;;;;;40.10;20.00;;;;;;;11.07;49.89;102857.81;4966540;28;100001;-84
2022/03/26 08:11:24;;;;;;;42.20;19.97;;;;;;;11.24;49.78;102860.00;4964524;28;97766;-83
2022/03/26 08:13:49;;;;;;;37.80;19.80;;;;;;;11.38;49.69;102847.72;4965102;28;97048;-83
2022/03/26 08:16:15;;;;;;;37.53;19.00;;;;;;;11.51;49.46;102837.41;4961744;28;96874;-82
2022/03/26 08:18:40;;;;;;;39.50;19.47;;;;;;;11.62;49.63;102848.13;4962804;28;97811;-82
2022/03/26 08:21:06;;;;;;;32.77;18.20;;;;;;;11.72;49.27;102850.53;4966767;28;96829;-83
2022/03/26 08:23:32;;;;;;;37.00;19.43;;;;;;;11.85;49.43;102844.97;4962713;28;96605;-82
2022/03/26 08:28:41;;;;;;;30.80;17.80;;;;;;;12.13;49.12;102840.41;4959001;28;101584;-81
2022/03/26 08:31:10;;;;;;;34.20;19.37;;;;;;;12.29;49.08;102845.72;4958849;28;97033;-82
2022/03/26 08:33:36;;;;;;;38.80;18.60;;;;;;;12.44;49.16;102841.22;4965533;28;96915;-82
2022/03/26 08:36:02;;;;;;;35.50;18.70;;;;;;;12.63;48.91;102837.31;4965422;28;96953;-82
2022/03/26 08:38:28;;;;;;;32.87;17.87;;;;;;;12.85;48.84;102843.56;4966032;28;97202;-83
2022/03/26 08:40:53;;;;;;;33.03;17.07;;;;;;;13.10;48.66;102840.63;4966178;28;97793;-83
2022/03/26 08:43:19;;;;;;;34.57;18.60;;;;;;;13.41;48.34;102848.84;4964868;28;97112;-82
2022/03/26 08:45:44;;;;;;;32.03;16.83;;;;;;;13.72;48.08;102837.63;4966192;28;96980;-82
2022/03/26 08:48:09;;;;;;;26.87;16.40;;;;;;;14.04;47.93;102837.00;4965547;28;98350;-82
2022/03/26 08:50:35;;;;;;;31.30;15.73;;;;;;;14.36;47.78;102838.34;4965215;28;96881;-82
2022/03/26 08:53:00;;;;;;;28.30;16.00;;;;;;;14.69;47.53;102839.94;4967523;28;97181;-83
2022/03/26 08:55:26;;;;;;;27.17;14.57;;;;;;;14.99;47.19;102849.19;4953490;28;96818;-83
2022/03/26 08:57:52;;;;;;;24.23;14.77;;;;;;;15.27;46.77;102856.13;4961150;28;99289;-83
2022/03/26 09:00:18;;;;;;;28.87;14.83;;;;;;;15.51;46.46;102842.28;4964143;28;96921;-82
2022/03/26 09:02:44;;;;;;;24.63;14.77;;;;;;;15.56;46.25;102838.84;4930401;28;96976;-81
2022/03/26 09:05:12;;;;;;;33.57;17.50;;;;;;;15.64;46.23;102843.56;4962383;28;96724;-82
2022/03/26 09:07:38;;;;;;;24.63;14.00;;;;;;;15.85;46.09;102850.03;4960789;28;98943;-82
2022/03/26 09:10:04;;;;;;;25.37;14.10;;;;;;;16.07;45.64;102855.25;4963802;28;99396;-82
2022/03/26 09:12:29;;;;;;;25.37;14.07;;;;;;;16.20;45.45;102862.06;4963194;28;97626;-83
2022/03/26 09:14:55;;;;;;;24.77;13.33;;;;;;;16.38;45.36;102841.66;4956372;28;96640;-81
2022/03/26 09:17:20;;;;;;;27.77;16.50;;;;;;;16.35;45.22;102848.19;4965388;28;98902;-82
2022/03/26 09:19:46;;;;;;;24.77;15.47;;;;;;;16.56;45.23;102840.69;4956637;28;98581;-82
2022/03/26 09:22:11;;;;;;;25.50;15.57;;;;;;;16.78;44.86;102841.06;4944995;28;96747;-81
2022/03/26 09:24:36;;;;;;;28.27;16.17;;;;;;;16.85;44.79;102840.66;4965956;28;97109;-82
2022/03/26 09:27:02;;;;;;;28.00;16.90;;;;;;;17.02;44.71;102841.66;4973417;28;96972;-82
2022/03/26 09:29:27;;;;;;;25.07;15.30;;;;;;;17.15;44.51;102854.00;4963638;28;98104;-83
2022/03/26 09:31:53;;;;;;;23.97;15.17;;;;;;;17.25;44.31;102846.31;4964389;28;97037;-82
2022/03/26 09:34:19;;;;;;;25.77;15.10;;;;;;;17.32;44.17;102845.13;4962826;28;96999;-83
2022/03/26 09:36:44;;;;;;;23.57;14.43;;;;;;;17.42;44.13;102850.06;4963939;28;98022;-83
2022/03/26 09:39:10;;;;;;;23.83;14.13;;;;;;;17.43;44.06;102848.06;4963353;28;96791;-83
2022/03/26 09:41:36;;;;;;;21.97;13.70;;;;;;;17.49;43.87;102855.22;4951296;28;97234;-82
2022/03/26 09:44:02;;;;;;;23.00;15.07;;;;;;;17.51;43.95;102860.31;4980418;28;96704;-82
2022/03/26 09:46:28;;;;;;;28.63;17.37;;;;;;;17.49;43.51;102860.78;4957395;28;97633;-82
2022/03/26 09:48:54;;;;;;;32.80;18.70;;;;;;;17.21;43.16;102838.16;4958220;28;96937;-83
2022/03/26 09:51:22;;;;;;;26.13;17.10;;;;;;;17.25;43.85;102824.03;4956370;28;96689;-82
2022/03/26 09:53:53;;;;;;;25.00;15.17;;;;;;;17.44;43.42;102827.31;4962430;28;98022;-83
2022/03/26 09:56:19;;;;;;;20.30;12.63;;;;;;;17.57;43.75;102828.50;4950412;28;97253;-83
2022/03/26 09:58:45;;;;;;;21.53;12.50;;;;;;;17.77;43.54;102822.16;4963651;28;98185;-82
2022/03/26 10:01:11;;;;;;;20.27;11.77;;;;;;;17.86;43.19;102820.00;4964291;28;97309;-82
2022/03/26 10:03:39;;;;;;;18.60;11.70;;;;;;;17.89;43.19;102821.78;4967822;28;97001;-81
2022/03/26 10:06:09;;;;;;;18.20;11.90;;;;;;;17.95;43.05;102830.22;4963347;28;96775;-82
2022/03/26 10:08:36;;;;;;;16.20;11.47;;;;;;;18.01;42.94;102827.47;4964477;28;96946;-82
2022/03/26 10:11:03;;;;;;;18.60;11.80;;;;;;;18.09;43.00;102812.59;4933472;28;97571;-83
2022/03/26 10:13:39;;;;;;;20.10;12.37;;;;;;;18.20;42.48;102811.94;4951071;28;96781;-82
2022/03/26 10:16:08;;;;;;;19.73;12.20;;;;;;;18.19;42.76;102804.84;4973233;28;97907;-83
2022/03/26 10:18:41;;;;;;;20.67;11.87;;;;;;;18.21;42.45;102814.25;4975568;28;97749;-83
2022/03/26 10:21:17;;;;;;;21.80;12.20;;;;;;;18.25;42.56;102819.59;4963875;28;96954;-84
2022/03/26 10:23:46;;;;;;;22.33;12.20;;;;;;;18.30;42.25;102810.50;4959391;28;97098;-82
2022/03/26 10:26:17;;;;;;;21.77;14.17;;;;;;;18.07;41.93;102817.13;4959273;28;97376;-82
2022/03/26 10:28:43;;;;;;;20.47;12.57;;;;;;;18.05;42.27;102808.50;4958410;28;97454;-82
2022/03/26 10:34:11;;;;;;;21.87;11.77;;;;;;;17.96;42.19;102821.34;4957973;28;97198;-83
2022/03/26 10:37:01;;;;;;;20.50;11.67;;;;;;;18.13;41.64;102801.25;4931112;28;97393;-82
2022/03/26 10:39:29;;;;;;;14.77;10.53;;;;;;;18.31;42.37;102812.03;4935029;28;100227;-82
2022/03/26 10:41:56;;;;;;;15.40;9.53;;;;;;;18.44;42.12;102804.03;4964844;28;96746;-82
2022/03/26 10:44:29;;;;;;;17.27;10.57;;;;;;;18.53;41.62;102809.44;4965727;28;97001;-81
2022/03/26 10:47:00;;;;;;;19.60;12.17;;;;;;;18.44;41.16;102809.59;4963350;28;103817;-82
2022/03/26 10:49:36;;;;;;;15.17;10.77;;;;;;;18.48;41.17;102821.31;4961434;28;102161;-81
2022/03/26 10:52:14;;;;;;;16.83;10.37;;;;;;;18.49;40.84;102804.09;4964980;28;97408;-83
2022/03/26 10:54:41;;;;;;;15.80;10.37;;;;;;;18.62;41.67;102798.13;4970828;28;96789;-83
2022/03/26 10:57:06;;;;;;;16.30;11.00;;;;;;;18.80;41.62;102808.13;4959540;28;97989;-83
2022/03/26 10:59:32;;;;;;;16.10;10.40;;;;;;;19.00;41.42;102799.63;4956345;28;96934;-84
2022/03/26 11:01:58;;;;;;;13.57;9.27;;;;;;;19.24;41.27;102802.78;4958565;28;96972;-83
2022/03/26 11:04:25;;;;;;;14.93;9.97;;;;;;;19.51;40.85;102810.50;4959798;28;96890;-82
2022/03/26 11:06:51;;;;;;;13.00;9.57;;;;;;;19.60;40.71;102795.56;4965854;28;96719;-83
2022/03/26 11:09:17;;;;;;;13.23;9.57;;;;;;;19.85;40.54;102794.63;4960280;28;97085;-82
2022/03/26 11:11:45;;;;;;;16.13;10.70;;;;;;;20.01;40.28;102805.81;4968223;28;97439;-83
2022/03/26 11:14:24;;;;;;;18.77;11.60;;;;;;;20.29;38.66;102802.31;4964395;28;96951;-82
2022/03/26 11:17:20;;;;;;;13.60;9.90;;;;;;;20.45;37.85;102799.50;4971993;28;102399;-83